createdAt,value
2023-01-13T00:04:21.179Z,0.38
2023-01-13T00:09:22.783Z,0.25
2023-01-13T00:14:24.655Z,0.10
2023-01-13T00:19:26.138Z,1.30
2023-01-13T00:24:27.749Z,0.85
2023-01-13T00:29:29.232Z,0.10
2023-01-13T00:34:30.716Z,0.20
2023-01-13T00:39:32.435Z,0.25
2023-01-13T00:44:33.988Z,0.17
2023-01-13T00:49:35.521Z,1.20
2023-01-13T00:54:37.071Z,1.30
2023-01-13T00:59:38.652Z,1.50
2023-01-13T01:04:40.145Z,0.47
2023-01-13T01:09:41.641Z,1.13
2023-01-13T01:14:43.194Z,1.02
2023-01-13T01:19:44.729Z,1.27
2023-01-13T01:24:47.673Z,1.33
2023-01-13T01:29:49.221Z,1.38
2023-01-13T01:34:51.504Z,0.52
2023-01-13T01:39:53.024Z,6.75
2023-01-13T01:45:17.383Z,4.28
2023-01-13T01:50:19.739Z,1.17
2023-01-13T01:55:28.957Z,1.98
2023-01-13T02:00:30.626Z,0.77
2023-01-13T02:05:32.188Z,1.95
2023-01-13T02:10:33.758Z,3.03
2023-01-13T02:16:13.655Z,2.33
2023-01-13T02:21:21.180Z,2.58
2023-01-13T02:26:44.130Z,3.40
2023-01-13T02:31:49.627Z,1.40
2023-01-13T02:37:14.458Z,1.35
2023-01-13T02:42:32.691Z,1.65
2023-01-13T02:47:38.051Z,0.88
2023-01-13T02:52:45.523Z,1.23
2023-01-13T02:57:49.487Z,1.05
2023-01-13T03:02:51.061Z,0.60
2023-01-13T03:08:14.164Z,1.20
2023-01-13T03:13:15.622Z,3.50
2023-01-13T03:18:45.302Z,3.55
2023-01-13T03:23:54.622Z,0.65
2023-01-13T03:29:03.324Z,1.20
2023-01-13T03:34:12.800Z,2.40
2023-01-13T03:39:20.097Z,0.57
2023-01-13T03:44:29.661Z,0.98
2023-01-13T03:50:00.416Z,4.25
2023-01-13T03:55:08.218Z,2.00
2023-01-13T04:00:12.468Z,3.03
2023-01-13T04:05:14.756Z,1.88
2023-01-13T04:10:26.072Z,2.55
2023-01-13T04:15:37.406Z,5.22
2023-01-13T04:20:39.845Z,3.50
2023-01-13T04:25:42.754Z,2.85
2023-01-13T04:30:45.393Z,3.60
2023-01-13T04:35:47.852Z,2.97
2023-01-13T04:40:55.150Z,4.47
2023-01-13T04:45:56.801Z,4.35
2023-01-13T04:50:58.369Z,3.63
2023-01-13T04:55:59.990Z,4.45
2023-01-13T05:01:01.809Z,6.25
2023-01-13T05:06:03.511Z,9.85
2023-01-13T05:11:05.235Z,7.18
2023-01-13T05:16:11.342Z,7.68
2023-01-13T05:21:13.170Z,10.15
2023-01-13T05:26:14.712Z,6.88
2023-01-13T05:31:16.412Z,7.70
2023-01-13T05:36:18.132Z,7.32
2023-01-13T05:41:19.675Z,13.75
2023-01-13T05:46:21.200Z,9.80
2023-01-13T05:51:22.829Z,8.65
2023-01-13T05:56:24.369Z,8.23
2023-01-13T06:01:25.977Z,4.35
2023-01-13T06:06:27.712Z,10.35
2023-01-13T06:11:29.321Z,10.25
2023-01-13T06:16:30.979Z,7.60
2023-01-13T06:21:33.377Z,4.57
2023-01-13T06:26:39.489Z,5.00
2023-01-13T06:31:41.127Z,9.50
2023-01-13T06:36:48.039Z,5.15
2023-01-13T06:41:53.974Z,6.35
2023-01-13T06:46:55.571Z,5.50
2023-01-13T06:51:57.165Z,4.38
2023-01-13T06:56:58.718Z,5.78
2023-01-13T07:02:00.322Z,3.80
2023-01-13T07:07:02.038Z,3.50
2023-01-13T07:12:03.880Z,4.60
2023-01-13T07:17:05.565Z,2.60
2023-01-13T07:22:07.110Z,3.22
2023-01-13T07:27:08.712Z,4.32
2023-01-13T07:32:10.313Z,2.22
2023-01-13T07:37:11.903Z,1.90
2023-01-13T07:42:13.427Z,4.97
2023-01-13T07:47:15.029Z,6.22
2023-01-13T07:52:16.660Z,4.10
2023-01-13T07:57:18.357Z,3.33
2023-01-13T08:02:20.007Z,3.00
2023-01-13T08:07:21.627Z,3.65
2023-01-13T08:12:23.132Z,2.95
2023-01-13T08:17:24.751Z,1.20
2023-01-13T08:22:26.345Z,2.85
2023-01-13T08:27:27.993Z,1.50
2023-01-13T08:32:29.519Z,7.75
2023-01-13T08:37:31.216Z,5.57
2023-01-13T08:42:33.040Z,3.67
2023-01-13T08:47:34.675Z,5.00
2023-01-13T08:52:36.455Z,3.20
2023-01-13T08:57:38.316Z,6.57
2023-01-13T09:02:40.039Z,6.70
2023-01-13T09:07:41.590Z,10.90
2023-01-13T09:12:43.168Z,15.18
2023-01-13T09:17:45.353Z,9.70
2023-01-13T09:22:46.888Z,5.05
2023-01-13T09:27:48.549Z,7.95
2023-01-13T09:32:50.317Z,10.32
2023-01-13T09:37:51.969Z,9.05
2023-01-13T09:43:02.962Z,7.25
2023-01-13T09:48:18.994Z,8.65
2023-01-13T09:53:25.769Z,10.77
2023-01-13T09:58:27.379Z,8.70
2023-01-13T10:03:35.015Z,12.38
2023-01-13T10:08:42.046Z,6.45
2023-01-13T10:13:43.932Z,5.40
2023-01-13T10:19:27.475Z,13.90
2023-01-13T10:25:04.585Z,6.90
2023-01-13T10:30:18.358Z,9.20
2023-01-13T10:35:49.858Z,8.35
2023-01-13T10:40:57.048Z,6.22
2023-01-13T10:46:10.611Z,8.43
2023-01-13T10:51:22.050Z,10.32
2023-01-13T10:56:27.665Z,5.05
2023-01-13T11:01:29.354Z,7.55
2023-01-13T11:06:31.078Z,13.45
2023-01-13T11:11:45.577Z,9.43
2023-01-13T11:16:53.827Z,9.95
2023-01-13T11:22:07.813Z,11.55
2023-01-13T11:27:31.274Z,8.02
2023-01-13T11:32:39.426Z,4.18
2023-01-13T11:37:46.157Z,6.82
2023-01-13T11:48:04.117Z,9.98
2023-01-13T11:53:26.694Z,7.40
2023-01-13T11:58:52.690Z,5.88
2023-01-13T12:04:36.354Z,11.00
2023-01-13T12:10:20.672Z,6.03
2023-01-13T12:15:22.315Z,13.18
2023-01-13T12:20:26.688Z,9.27
2023-01-13T12:25:34.951Z,11.50
2023-01-13T12:30:44.476Z,5.03
2023-01-13T12:35:54.620Z,8.15
2023-01-13T12:41:12.940Z,6.78
2023-01-13T12:46:20.663Z,6.60
2023-01-13T12:51:33.802Z,12.43
2023-01-13T12:56:38.695Z,5.03
2023-01-13T13:01:40.408Z,7.72
2023-01-13T13:06:46.822Z,9.75
2023-01-13T13:11:49.070Z,10.07
2023-01-13T13:16:52.284Z,7.28
2023-01-13T13:22:11.999Z,8.15
2023-01-13T13:27:22.609Z,10.07
2023-01-13T13:32:30.118Z,10.82
2023-01-13T13:38:02.787Z,15.30
2023-01-13T13:43:11.553Z,10.80
2023-01-13T13:48:22.569Z,9.60
2023-01-13T13:53:28.306Z,14.48
2023-01-13T13:58:32.702Z,13.13
2023-01-13T14:03:39.740Z,11.43
2023-01-13T14:08:50.255Z,12.60
2023-01-13T14:14:06.519Z,14.40
2023-01-13T14:19:31.957Z,15.07
2023-01-13T14:24:33.929Z,13.35
2023-01-13T14:29:36.438Z,10.52
2023-01-13T14:34:38.998Z,6.03
2023-01-13T14:39:41.496Z,12.55
2023-01-13T14:44:48.536Z,7.45
2023-01-13T14:49:59.061Z,7.85
2023-01-13T14:55:06.547Z,5.30
2023-01-13T15:00:15.359Z,9.20
2023-01-13T15:05:16.801Z,7.90
2023-01-13T15:10:20.904Z,9.43
2023-01-13T15:15:37.676Z,6.38
2023-01-13T15:20:40.306Z,8.77
2023-01-13T15:25:43.028Z,6.35
2023-01-13T15:30:44.664Z,7.05
2023-01-13T15:35:51.380Z,9.68
2023-01-13T15:45:54.537Z,9.20
2023-01-13T15:50:56.091Z,16.85
2023-01-13T15:55:58.840Z,11.45
2023-01-13T16:01:00.466Z,12.82
2023-01-13T16:06:02.042Z,12.88
2023-01-13T16:11:03.616Z,11.13
2023-01-13T16:16:19.354Z,7.32
2023-01-13T16:21:21.505Z,12.13
2023-01-13T16:26:25.972Z,11.38
2023-01-13T16:31:29.912Z,10.05
2023-01-13T16:36:35.382Z,16.42
2023-01-13T16:41:36.984Z,10.85
2023-01-13T16:46:38.503Z,11.50
2023-01-13T16:51:40.102Z,6.57
2023-01-13T16:56:41.617Z,13.38
2023-01-13T17:01:44.263Z,15.18
2023-01-13T17:06:59.808Z,8.52
2023-01-13T17:12:01.315Z,11.57
2023-01-13T17:17:02.864Z,8.90
2023-01-13T17:22:04.355Z,9.02
2023-01-13T17:27:06.011Z,11.73
2023-01-13T17:32:07.579Z,14.50
2023-01-13T17:37:09.993Z,11.50
2023-01-13T17:42:11.558Z,15.98
2023-01-13T17:47:13.056Z,13.70
2023-01-13T17:52:14.590Z,19.65
2023-01-13T17:57:16.076Z,11.77
2023-01-13T18:02:17.676Z,11.98
2023-01-13T18:07:19.279Z,21.40
2023-01-13T18:12:20.869Z,12.90
2023-01-13T18:17:22.457Z,11.77
2023-01-13T18:22:23.963Z,14.05
2023-01-13T18:27:33.507Z,9.02
2023-01-13T18:32:35.293Z,14.05
2023-01-13T18:37:41.135Z,13.65
2023-01-13T18:42:42.673Z,18.87
2023-01-13T18:47:44.234Z,13.63
2023-01-13T18:52:46.225Z,7.47
2023-01-13T18:57:48.532Z,12.23
2023-01-13T19:02:50.375Z,11.45
2023-01-13T19:07:51.955Z,10.20
2023-01-13T19:12:53.477Z,10.23
2023-01-13T19:17:55.000Z,10.10
2023-01-13T19:22:56.542Z,10.02
2023-01-13T19:27:58.040Z,13.07
2023-01-13T19:32:59.559Z,13.27
2023-01-13T19:38:01.071Z,13.85
2023-01-13T19:43:02.626Z,11.38
2023-01-13T19:48:04.374Z,8.18
2023-01-13T19:53:07.288Z,10.75
2023-01-13T19:58:08.921Z,9.10
2023-01-13T20:03:10.535Z,24.25
2023-01-13T20:08:12.576Z,10.93
2023-01-13T20:13:14.970Z,18.05
2023-01-13T20:18:16.486Z,6.75
2023-01-13T20:23:17.991Z,10.93
2023-01-13T20:28:19.492Z,12.88
2023-01-13T20:33:20.991Z,10.55
2023-01-13T20:38:22.509Z,16.10
2023-01-13T20:43:24.010Z,9.23
2023-01-13T20:48:25.503Z,13.38
2023-01-13T20:53:27.001Z,16.67
2023-01-13T20:58:28.545Z,6.05
2023-01-13T21:03:30.049Z,13.07
2023-01-13T21:08:31.565Z,15.38
2023-01-13T21:13:33.061Z,15.48
2023-01-13T21:18:34.628Z,12.57
2023-01-13T21:23:36.180Z,14.85
2023-01-13T21:28:37.705Z,13.18
2023-01-13T21:33:39.281Z,10.60
2023-01-13T21:38:41.030Z,16.30
2023-01-13T21:43:42.505Z,20.08
2023-01-13T21:48:43.995Z,11.50
2023-01-13T21:53:45.493Z,17.70
2023-01-13T21:58:47.439Z,13.73
2023-01-13T22:03:48.922Z,16.08
2023-01-13T22:08:50.555Z,12.48
2023-01-13T22:13:52.097Z,14.38
2023-01-13T22:18:53.677Z,15.75
2023-01-13T22:23:55.235Z,13.93
2023-01-13T22:28:56.801Z,13.05
2023-01-13T22:33:58.378Z,12.70
2023-01-13T22:38:59.894Z,14.93
2023-01-13T22:44:01.412Z,12.85
2023-01-13T22:49:03.170Z,14.60
2023-01-13T22:54:05.152Z,15.77
2023-01-13T22:59:07.685Z,15.00
2023-01-13T23:04:11.777Z,12.50
2023-01-13T23:09:13.370Z,12.07
2023-01-13T23:14:14.857Z,12.00
2023-01-13T23:19:16.437Z,14.43
2023-01-13T23:24:17.940Z,11.60
2023-01-13T23:29:19.518Z,13.15
2023-01-13T23:34:21.046Z,11.27
2023-01-13T23:39:22.560Z,15.43
2023-01-13T23:44:24.114Z,21.77
2023-01-13T23:49:25.649Z,15.50
2023-01-13T23:54:27.243Z,13.88
2023-01-13T23:59:28.743Z,16.13
